Time;durP1;ratioP1;P1;durP2;ratioP2;P2;SDS_P1;SDS_P2;PMS_P1;PMS_P2;Temp;Humidity;BMP_temperature;BMP_pressure;BME280_temperature;BME280_humidity;BME280_pressure;Samples;Min_cycle;Max_cycle;Signal;HPM_P1;HPM_P2
2022/08/15 00:00:54;;;;;;;9.27;7.97;;;;;;;22.77;55.27;100156.81;5083205;28;20027;-71
2022/08/15 00:03:31;;;;;;;9.80;8.80;;;;;;;22.73;54.94;100150.09;5084347;28;20031;-72
2022/08/15 00:05:59;;;;;;;9.18;8.18;;;;;;;22.72;55.52;100148.41;5083700;28;20367;-72
2022/08/15 00:08:27;;;;;;;9.98;8.48;;;;;;;22.70;56.32;100156.50;5080650;28;20506;-72
2022/08/15 00:10:55;;;;;;;11.45;8.07;;;;;;;22.71;56.42;100171.44;5081500;28;20531;-72
2022/08/15 00:13:23;;;;;;;12.73;9.15;;;;;;;22.65;56.27;100195.00;5085524;28;20020;-72
2022/08/15 00:15:51;;;;;;;9.18;8.20;;;;;;;22.58;57.22;100166.38;5085551;28;20060;-72
2022/08/15 00:18:18;;;;;;;10.85;8.95;;;;;;;22.55;56.49;100163.97;5084116;28;20020;-72
2022/08/15 00:20:43;;;;;;;9.63;8.10;;;;;;;22.53;56.60;100171.25;5087190;28;20020;-72
2022/08/15 00:23:11;;;;;;;9.10;8.20;;;;;;;22.51;56.47;100165.25;5086424;28;20905;-72
2022/08/15 00:25:37;;;;;;;9.18;8.13;;;;;;;22.51;56.60;100167.91;5085264;28;20036;-72
2022/08/15 00:28:05;;;;;;;11.00;8.48;;;;;;;22.50;56.96;100170.66;5085970;28;20043;-72
2022/08/15 00:30:31;;;;;;;10.13;8.32;;;;;;;22.49;56.73;100159.25;5086038;28;20113;-72
2022/08/15 00:32:57;;;;;;;10.25;7.95;;;;;;;22.44;56.96;100153.50;5082693;28;20455;-72
2022/08/15 00:35:41;;;;;;;10.57;8.48;;;;;;;22.42;56.98;100152.78;5085610;28;20024;-72
2022/08/15 00:38:11;;;;;;;9.95;8.40;;;;;;;22.38;57.00;100151.34;5088098;28;20031;-71
2022/08/15 00:43:25;;;;;;;10.73;8.90;;;;;;;22.30;57.70;100154.66;5085421;28;20066;-72
2022/08/15 00:45:51;;;;;;;10.85;9.10;;;;;;;22.23;59.03;100149.03;5087336;28;20024;-72
2022/08/15 00:51:03;;;;;;;9.48;8.57;;;;;;;22.12;60.28;100163.22;5089866;28;20038;-72
2022/08/15 00:53:29;;;;;;;11.10;8.88;;;;;;;22.08;60.56;100158.31;5085381;28;20142;-72
2022/08/15 00:55:56;;;;;;;11.07;9.43;;;;;;;22.04;59.75;100160.41;5084804;28;20020;-72
2022/08/15 00:58:22;;;;;;;11.02;8.98;;;;;;;22.01;60.37;100159.81;5084970;28;20020;-72
2022/08/15 01:00:48;;;;;;;13.40;9.73;;;;;;;21.97;60.78;100157.44;5085040;28;20018;-72
2022/08/15 01:03:37;;;;;;;17.90;9.70;;;;;;;21.97;59.16;100157.44;5081763;28;20028;-71
2022/08/15 01:06:03;;;;;;;10.23;8.70;;;;;;;21.93;59.22;100158.66;5080362;28;20027;-72
2022/08/15 01:08:33;;;;;;;9.73;8.73;;;;;;;21.94;59.12;100160.34;5083944;28;20032;-72
2022/08/15 01:11:04;;;;;;;12.15;9.40;;;;;;;21.94;58.86;100160.34;5086577;28;20074;-72
2022/08/15 01:13:32;;;;;;;10.63;9.52;;;;;;;21.95;59.51;100156.72;5075524;28;20101;-71
2022/08/15 01:15:57;;;;;;;11.55;9.27;;;;;;;21.94;61.06;100154.22;5071847;28;20043;-71
2022/08/15 01:18:22;;;;;;;10.30;9.30;;;;;;;21.95;59.32;100156.72;5072215;28;20036;-72
2022/08/15 01:20:49;;;;;;;11.43;8.95;;;;;;;21.93;59.27;100150.72;5069563;28;20053;-72
2022/08/15 01:23:27;;;;;;;13.48;9.23;;;;;;;21.90;59.02;100147.50;5065127;28;20028;-71
2022/08/15 01:25:57;;;;;;;12.18;9.07;;;;;;;21.85;59.78;100150.53;5069898;28;20028;-72
2022/08/15 01:28:33;;;;;;;10.82;9.52;;;;;;;21.83;59.49;100141.88;5082042;28;20048;-72
2022/08/15 01:31:03;;;;;;;11.18;9.95;;;;;;;21.83;60.37;100144.53;5084441;28;20093;-72
2022/08/15 01:33:31;;;;;;;11.30;9.57;;;;;;;21.81;61.25;100143.81;5080558;28;20121;-72
2022/08/15 01:35:58;;;;;;;10.95;9.80;;;;;;;21.80;60.32;100134.19;5079107;28;20447;-71
2022/08/15 01:38:37;;;;;;;10.95;9.63;;;;;;;21.76;59.83;100140.72;5077081;28;20032;-71
2022/08/15 01:41:21;;;;;;;11.88;10.65;;;;;;;21.75;60.90;100152.25;5093447;28;20020;-72
2022/08/15 01:43:57;;;;;;;11.82;9.98;;;;;;;21.71;59.30;100148.19;5084369;28;20078;-71
2022/08/15 01:46:28;;;;;;;12.48;10.88;;;;;;;21.68;59.59;100142.22;5084211;28;20055;-71
2022/08/15 01:49:05;;;;;;;11.45;9.70;;;;;;;21.69;59.67;100135.09;5085317;28;20034;-71
2022/08/15 01:51:30;;;;;;;12.35;10.50;;;;;;;21.67;59.47;100137.88;5083732;28;20031;-71
2022/08/15 01:54:03;;;;;;;12.20;10.95;;;;;;;21.68;59.46;100139.56;5081817;28;20024;-71
2022/08/15 01:56:33;;;;;;;12.52;11.20;;;;;;;21.69;59.45;100140.38;5075823;28;20058;-72
2022/08/15 01:59:02;;;;;;;13.98;10.52;;;;;;;21.70;59.43;100141.22;5083545;28;20380;-72
2022/08/15 02:01:57;;;;;;;12.15;10.75;;;;;;;21.71;58.83;100140.25;5077540;28;20513;-72
2022/08/15 02:04:28;;;;;;;11.85;10.32;;;;;;;21.68;59.13;100146.66;5075069;28;20218;-72
2022/08/15 02:06:55;;;;;;;13.10;10.57;;;;;;;21.63;59.49;100152.34;5084338;28;20107;-72
2022/08/15 02:09:20;;;;;;;12.05;10.52;;;;;;;21.61;59.34;100158.72;5080989;28;20089;-72
2022/08/15 02:11:47;;;;;;;12.98;10.98;;;;;;;21.58;59.00;100159.78;5084100;28;20040;-72
2022/08/15 02:14:13;;;;;;;11.43;9.95;;;;;;;21.56;58.13;100161.72;5080290;28;20123;-72
2022/08/15 02:16:41;;;;;;;11.93;9.73;;;;;;;21.55;57.78;100167.97;5078487;28;20103;-72
2022/08/15 02:19:10;;;;;;;11.52;9.60;;;;;;;21.53;57.44;100168.09;5081672;28;21713;-71
2022/08/15 02:21:38;;;;;;;12.30;9.60;;;;;;;21.53;56.21;100154.88;5080175;28;20031;-72
2022/08/15 02:24:10;;;;;;;10.23;8.95;;;;;;;21.57;56.18;100166.03;5083355;28;20028;-71
2022/08/15 02:26:36;;;;;;;11.27;8.48;;;;;;;21.58;55.19;100156.31;5075152;28;20035;-71
2022/08/15 02:29:02;;;;;;;10.65;8.32;;;;;;;21.59;54.72;100161.47;5084183;28;20044;-72
2022/08/15 02:31:31;;;;;;;10.43;7.10;;;;;;;21.59;53.00;100158.00;5083229;28;20036;-71
2022/08/15 02:33:58;;;;;;;8.07;6.63;;;;;;;21.59;52.21;100158.81;5078049;28;20577;-72
2022/08/15 02:36:25;;;;;;;8.18;6.05;;;;;;;21.62;51.82;100161.25;5082858;28;20035;-72
2022/08/15 02:38:51;;;;;;;8.10;5.93;;;;;;;21.63;51.73;100162.06;5076959;28;20471;-72
2022/08/15 02:41:40;;;;;;;7.82;5.63;;;;;;;21.64;52.20;100156.66;5078591;28;20024;-72
2022/08/15 02:44:05;;;;;;;7.20;5.22;;;;;;;21.64;50.36;100156.66;5082177;28;20030;-72
2022/08/15 02:46:31;;;;;;;7.78;5.20;;;;;;;21.66;50.44;100161.81;5082587;28;20499;-72
2022/08/15 02:48:58;;;;;;;8.48;5.40;;;;;;;21.65;50.15;100168.06;5084169;28;20036;-72
2022/08/15 02:51:26;;;;;;;5.40;4.78;;;;;;;21.65;50.00;100163.63;5082150;28;20036;-71
2022/08/15 02:53:53;;;;;;;7.70;5.05;;;;;;;21.65;49.93;100161.00;5080140;28;20039;-72
2022/08/15 02:56:22;;;;;;;6.97;4.60;;;;;;;21.66;49.54;100162.66;5078164;28;20045;-72
2022/08/15 02:58:48;;;;;;;5.72;4.53;;;;;;;21.67;49.39;100159.06;5078402;28;22021;-72
2022/08/15 03:01:14;;;;;;;9.48;4.35;;;;;;;21.70;49.04;100170.34;5074937;28;20020;-71
2022/08/15 03:03:42;;;;;;;8.00;4.05;;;;;;;21.68;48.75;100163.38;5083079;28;20082;-71
2022/08/15 03:06:12;;;;;;;6.35;4.05;;;;;;;21.70;48.99;100167.69;5080193;28;20032;-72
2022/08/15 03:08:40;;;;;;;7.30;3.90;;;;;;;21.68;48.84;100166.03;5085610;28;20451;-71
2022/08/15 03:11:07;;;;;;;5.80;3.97;;;;;;;21.66;48.89;100167.97;5077778;28;20032;-71
2022/08/15 03:13:33;;;;;;;8.20;3.75;;;;;;;21.66;48.78;100161.81;5078259;28;20028;-71
2022/08/15 03:16:00;;;;;;;6.38;3.90;;;;;;;21.64;48.79;100159.31;5077470;28;20447;-72
2022/08/15 03:18:29;;;;;;;6.15;3.38;;;;;;;21.62;48.49;100155.94;5079616;28;20090;-72
2022/08/15 03:20:56;;;;;;;8.38;3.58;;;;;;;21.61;48.36;100162.22;5081094;28;20036;-72
2022/08/15 03:23:25;;;;;;;4.50;3.40;;;;;;;21.60;48.34;100163.19;5075994;28;20021;-72
2022/08/15 03:25:52;;;;;;;5.13;3.53;;;;;;;21.57;48.38;100168.69;5077537;28;20383;-71
2022/08/15 03:28:20;;;;;;;5.72;3.70;;;;;;;21.55;48.56;100170.63;5077523;28;20071;-72
2022/08/15 03:30:46;;;;;;;6.82;3.83;;;;;;;21.52;48.33;100170.91;5083088;28;20048;-71
2022/08/15 03:33:11;;;;;;;7.15;3.80;;;;;;;21.49;48.45;100171.16;5079520;28;20032;-71
2022/08/15 03:35:45;;;;;;;7.38;3.67;;;;;;;21.46;48.86;100171.41;5080043;28;20021;-71
2022/08/15 03:38:11;;;;;;;7.20;3.50;;;;;;;21.43;48.70;100174.28;5083225;28;20026;-72
2022/08/15 03:40:37;;;;;;;6.40;3.80;;;;;;;21.39;48.92;100171.06;5079177;28;20029;-71
2022/08/15 03:43:11;;;;;;;11.02;3.80;;;;;;;21.34;48.97;100168.81;5081049;28;20059;-72
2022/08/15 03:45:36;;;;;;;6.10;3.65;;;;;;;21.31;48.63;100170.84;5080163;28;20051;-72
2022/08/15 03:48:02;;;;;;;7.88;3.70;;;;;;;21.30;48.73;100164.72;5077663;28;20468;-71
2022/08/15 03:50:29;;;;;;;5.90;3.40;;;;;;;21.26;48.80;100159.81;5082216;28;20111;-72
2022/08/15 03:52:58;;;;;;;6.95;3.67;;;;;;;21.25;48.84;100166.06;5084364;28;20077;-71
2022/08/15 03:55:27;;;;;;;10.40;3.63;;;;;;;21.23;48.90;100166.19;5078980;28;20028;-72
2022/08/15 03:57:54;;;;;;;5.95;3.90;;;;;;;21.20;49.02;100177.00;5082033;28;20491;-72
2022/08/15 04:00:23;;;;;;;5.93;3.42;;;;;;;21.15;49.59;100177.38;5084956;28;20039;-71
2022/08/15 04:02:49;;;;;;;6.28;3.30;;;;;;;21.11;49.35;100180.41;5086725;28;20027;-71
2022/08/15 04:05:15;;;;;;;5.07;3.20;;;;;;;21.05;49.60;100179.94;5082201;28;20040;-71
2022/08/15 04:07:41;;;;;;;4.57;3.33;;;;;;;21.02;50.14;100180.16;5084481;28;20055;-71
2022/08/15 04:10:10;;;;;;;3.70;3.17;;;;;;;20.97;49.44;100176.22;5082365;28;20047;-71
2022/08/15 04:12:40;;;;;;;5.45;3.53;;;;;;;20.94;49.76;100177.31;5076658;28;20767;-72
2022/08/15 04:15:09;;;;;;;7.82;3.30;;;;;;;20.92;49.71;100171.31;5079935;28;20391;-71
2022/08/15 04:17:35;;;;;;;5.53;3.97;;;;;;;20.92;49.57;100179.25;5083275;28;20032;-71
2022/08/15 04:20:00;;;;;;;8.18;3.95;;;;;;;20.91;50.11;100178.41;5079448;28;20046;-71
2022/08/15 04:22:36;;;;;;;4.40;3.42;;;;;;;20.89;50.12;100179.47;5084021;28;20028;-72
2022/08/15 04:25:11;;;;;;;8.52;3.65;;;;;;;20.86;50.12;100187.66;5080723;28;20043;-72
2022/08/15 04:27:37;;;;;;;5.63;3.60;;;;;;;20.84;51.03;100187.78;5078397;28;20425;-72
2022/08/15 04:30:04;;;;;;;6.63;3.88;;;;;;;20.81;50.25;100192.50;5085168;28;20547;-71
2022/08/15 04:32:30;;;;;;;7.50;3.53;;;;;;;20.76;50.48;100183.13;5081506;28;20035;-72
2022/08/15 04:34:58;;;;;;;7.82;3.70;;;;;;;20.75;50.76;100194.66;5078708;28;20368;-71
2022/08/15 04:37:25;;;;;;;9.45;3.90;;;;;;;20.74;50.33;100195.56;5079687;28;20024;-71
2022/08/15 04:39:50;;;;;;;8.20;3.70;;;;;;;20.75;50.50;100188.50;5082417;28;20520;-71
2022/08/15 04:42:19;;;;;;;4.65;3.72;;;;;;;20.74;50.81;100187.66;5083686;28;20036;-71
2022/08/15 04:44:45;;;;;;;6.22;3.58;;;;;;;20.75;51.18;100186.72;5079595;28;20127;-71
2022/08/15 04:47:11;;;;;;;6.85;3.85;;;;;;;20.77;51.00;100187.44;5083360;28;20058;-71
2022/08/15 04:49:36;;;;;;;7.78;3.72;;;;;;;20.79;51.68;100194.41;5086219;28;20059;-72
2022/08/15 04:52:17;;;;;;;6.68;4.00;;;;;;;20.76;51.75;100185.75;5081521;28;20441;-71
2022/08/15 04:54:43;;;;;;;7.57;4.13;;;;;;;20.77;52.34;100198.00;5083919;28;20040;-72
2022/08/15 04:57:09;;;;;;;7.97;3.78;;;;;;;20.76;52.28;100200.75;5086924;28;20647;-72
2022/08/15 04:59:36;;;;;;;6.15;3.90;;;;;;;20.75;52.84;100194.66;5076538;28;20504;-72
2022/08/15 05:02:02;;;;;;;7.90;3.72;;;;;;;20.75;53.53;100196.44;5077371;28;20030;-72
2022/08/15 05:04:28;;;;;;;6.82;3.80;;;;;;;20.74;53.28;100198.22;5080479;28;20546;-72
2022/08/15 05:06:53;;;;;;;9.27;4.07;;;;;;;20.75;53.75;100204.38;5080047;28;20039;-71
2022/08/15 05:09:18;;;;;;;9.10;4.38;;;;;;;20.75;53.72;100207.88;5084256;28;20081;-71
2022/08/15 05:11:43;;;;;;;6.15;3.65;;;;;;;20.76;53.88;100206.91;5086312;28;20016;-71
2022/08/15 05:14:08;;;;;;;9.95;3.42;;;;;;;20.80;53.73;100211.97;5083062;28;20043;-72
2022/08/15 05:16:34;;;;;;;6.10;3.83;;;;;;;20.84;53.40;100213.38;5086106;28;20930;-71
2022/08/15 05:19:00;;;;;;;6.60;3.70;;;;;;;20.87;53.64;100211.34;5086843;28;20024;-71
2022/08/15 05:21:28;;;;;;;6.50;3.35;;;;;;;20.91;53.77;100210.16;5089170;28;20051;-71
2022/08/15 05:23:53;;;;;;;7.07;3.80;;;;;;;20.97;53.77;100214.09;5085786;28;20035;-72
2022/08/15 05:26:19;;;;;;;8.00;3.78;;;;;;;21.03;54.30;100207.47;5083772;28;20020;-71
2022/08/15 05:28:44;;;;;;;5.43;3.35;;;;;;;21.07;54.43;100212.38;5087487;28;20593;-72
2022/08/15 05:31:10;;;;;;;5.38;3.50;;;;;;;21.13;54.22;100212.88;5086101;28;20455;-72
2022/08/15 05:33:38;;;;;;;6.93;3.58;;;;;;;21.18;54.22;100218.63;5091814;28;20483;-71
2022/08/15 05:36:05;;;;;;;6.88;3.10;;;;;;;21.24;54.63;100215.47;5090519;28;20031;-72
2022/08/15 05:38:48;;;;;;;6.82;3.65;;;;;;;21.31;53.71;100219.31;5081770;28;20020;-72
2022/08/15 05:41:43;;;;;;;5.18;3.60;;;;;;;21.36;53.59;100222.41;5081886;28;20479;-72
2022/08/15 05:44:22;;;;;;;7.25;3.38;;;;;;;21.37;53.95;100229.38;5091653;28;20074;-71
2022/08/15 05:47:07;;;;;;;4.90;3.47;;;;;;;21.37;54.47;100234.69;5081832;28;20071;-72
2022/08/15 05:49:51;;;;;;;8.77;3.78;;;;;;;21.38;54.23;100233.72;5084045;28;20035;-72
2022/08/15 05:52:50;;;;;;;5.13;3.22;;;;;;;21.42;54.03;100230.81;5085913;28;20028;-72
2022/08/15 05:55:38;;;;;;;5.63;3.28;;;;;;;21.40;54.38;100230.09;5053024;28;20072;-71
2022/08/15 05:58:13;;;;;;;4.93;3.38;;;;;;;21.41;55.33;100232.63;5086221;28;21460;-71
2022/08/15 06:00:44;;;;;;;6.13;3.42;;;;;;;21.41;55.65;100221.19;5082466;28;20028;-72
2022/08/15 06:03:15;;;;;;;8.70;3.58;;;;;;;21.42;55.59;100221.09;5088951;28;20022;-71
2022/08/15 06:05:48;;;;;;;6.47;3.58;;;;;;;21.43;55.59;100229.84;5084923;28;20080;-72
2022/08/15 06:08:26;;;;;;;6.47;3.53;;;;;;;21.44;55.94;100226.25;5086953;28;20032;-72
2022/08/15 06:11:09;;;;;;;5.20;3.28;;;;;;;21.44;56.21;100236.84;5086124;28;20020;-72
2022/08/15 06:13:46;;;;;;;8.27;3.80;;;;;;;21.45;56.03;100244.63;5082100;28;20776;-72
2022/08/15 06:16:23;;;;;;;5.57;3.35;;;;;;;21.46;56.50;100245.50;5086019;28;20043;-71
2022/08/15 06:18:49;;;;;;;4.25;3.05;;;;;;;21.50;57.99;100250.41;5079149;28;20036;-71
2022/08/15 06:21:43;;;;;;;5.13;2.90;;;;;;;21.57;56.59;100234.84;5080479;28;20030;-71
2022/08/15 06:24:18;;;;;;;5.68;3.15;;;;;;;21.62;56.37;100235.34;5085099;28;20784;-71
2022/08/15 06:27:16;;;;;;;5.13;3.25;;;;;;;21.67;55.64;100238.47;5079730;28;20032;-71
2022/08/15 06:29:48;;;;;;;6.35;3.25;;;;;;;21.70;56.07;100228.56;5088556;28;20040;-71
2022/08/15 06:32:26;;;;;;;6.75;3.33;;;;;;;21.71;55.47;100235.56;5083122;28;20450;-72
2022/08/15 06:35:25;;;;;;;6.35;3.30;;;;;;;21.73;55.49;100234.47;5079445;28;20137;-71
2022/08/15 06:38:05;;;;;;;7.10;3.42;;;;;;;21.73;56.15;100242.41;5084224;28;20146;-71
2022/08/15 06:40:48;;;;;;;11.75;3.63;;;;;;;21.74;56.25;100249.41;5082060;28;20095;-73
2022/08/15 06:43:13;;;;;;;8.02;3.55;;;;;;;21.74;57.04;100251.19;5086182;28;20031;-73
2022/08/15 06:45:43;;;;;;;5.07;3.33;;;;;;;21.74;56.84;100257.34;5080338;28;20032;-73
2022/08/15 06:48:13;;;;;;;5.38;3.47;;;;;;;21.77;56.76;100261.53;5080124;28;20111;-73
2022/08/15 06:50:51;;;;;;;4.75;3.13;;;;;;;21.81;56.57;100257.66;5076613;28;20028;-72
2022/08/15 06:53:42;;;;;;;7.55;3.20;;;;;;;21.85;56.34;100253.81;5082042;28;20032;-72
2022/08/15 06:56:29;;;;;;;5.07;3.33;;;;;;;21.89;56.90;100259.69;5080201;28;20047;-72
2022/08/15 06:59:10;;;;;;;5.57;3.08;;;;;;;21.93;56.43;100259.28;5078300;28;20471;-73
2022/08/15 07:02:12;;;;;;;4.72;3.10;;;;;;;21.98;56.54;100251.81;5075527;28;20028;-73
2022/08/15 07:04:38;;;;;;;5.80;3.33;;;;;;;22.04;57.31;100246.94;5077622;28;20032;-72
2022/08/15 07:07:34;;;;;;;7.63;3.50;;;;;;;22.09;56.54;100236.81;5082558;28;20089;-72
2022/08/15 07:10:41;;;;;;;8.15;3.45;;;;;;;22.16;56.32;100248.59;5085847;28;20285;-72
2022/08/15 07:13:16;;;;;;;6.35;3.30;;;;;;;22.21;57.11;100246.38;5089047;28;20047;-72
2022/08/15 07:15:53;;;;;;;4.72;3.13;;;;;;;22.24;56.84;100251.41;5085391;28;20028;-73
2022/08/15 07:18:27;;;;;;;5.25;3.33;;;;;;;22.26;57.26;100249.47;5083413;28;20059;-72
2022/08/15 07:21:06;;;;;;;8.70;3.58;;;;;;;22.30;56.80;100236.78;5088029;28;20028;-72
2022/08/15 07:23:33;;;;;;;5.60;3.35;;;;;;;22.34;57.39;100235.56;5087552;28;20055;-72
2022/08/15 07:26:04;;;;;;;5.00;3.58;;;;;;;22.38;57.02;100234.34;5082439;28;20379;-72
2022/08/15 07:28:33;;;;;;;16.00;4.00;;;;;;;22.43;56.70;100239.28;5087126;28;20039;-72
2022/08/15 07:31:04;;;;;;;5.45;3.30;;;;;;;22.46;57.27;100235.53;5087043;28;20131;-72
2022/08/15 07:33:48;;;;;;;5.32;3.58;;;;;;;22.48;56.37;100241.53;5089381;28;20467;-72
2022/08/15 07:36:26;;;;;;;4.90;3.20;;;;;;;22.47;57.00;100234.53;5091379;28;20081;-73
2022/08/15 07:38:52;;;;;;;7.80;3.70;;;;;;;22.47;57.09;100237.19;5091698;28;20031;-72
2022/08/15 07:41:29;;;;;;;5.50;3.50;;;;;;;22.47;57.09;100246.00;5090349;28;20012;-72
2022/08/15 07:44:15;;;;;;;7.07;3.70;;;;;;;22.48;57.38;100245.03;5086603;28;20030;-72
2022/08/15 07:46:48;;;;;;;8.18;3.58;;;;;;;22.52;57.78;100243.81;5092988;28;20031;-73
2022/08/15 07:49:21;;;;;;;7.07;3.75;;;;;;;22.55;57.12;100248.81;5093349;28;20478;-73
2022/08/15 07:51:57;;;;;;;6.72;3.50;;;;;;;22.59;57.24;100255.53;5088840;28;20058;-73
2022/08/15 07:54:42;;;;;;;6.10;4.03;;;;;;;22.62;56.89;100258.91;5093504;28;20074;-73
2022/08/15 07:57:19;;;;;;;7.65;4.13;;;;;;;22.65;57.00;100263.94;5086558;28;20106;-72
2022/08/15 08:00:16;;;;;;;7.45;4.10;;;;;;;22.70;56.42;100253.78;5090055;28;20096;-73
2022/08/15 08:03:21;;;;;;;10.35;4.30;;;;;;;22.78;56.52;100259.25;5089453;28;20019;-73
2022/08/15 08:05:53;;;;;;;7.28;3.92;;;;;;;22.84;56.10;100263.19;5088197;28;20127;-72
2022/08/15 08:08:22;;;;;;;7.53;4.22;;;;;;;22.94;56.34;100257.91;5084460;28;20051;-72
2022/08/15 08:10:57;;;;;;;7.32;3.83;;;;;;;23.10;56.83;100260.88;5086354;28;20232;-72
2022/08/15 08:13:58;;;;;;;7.45;4.25;;;;;;;23.27;55.87;100263.88;5088784;28;20055;-73
2022/08/15 08:16:29;;;;;;;7.30;4.43;;;;;;;23.36;55.32;100268.41;5084149;28;20036;-73
2022/08/15 08:19:11;;;;;;;7.43;4.20;;;;;;;23.40;55.35;100268.94;5084149;28;20059;-72
2022/08/15 08:21:46;;;;;;;5.63;4.38;;;;;;;23.41;55.38;100270.63;5086440;28;20028;-73
2022/08/15 08:24:27;;;;;;;8.38;4.63;;;;;;;23.40;54.94;100269.78;5089612;28;20107;-72
2022/08/15 08:27:07;;;;;;;6.80;4.30;;;;;;;23.42;55.41;100273.13;5085674;28;20089;-72
2022/08/15 08:29:53;;;;;;;6.00;4.43;;;;;;;23.46;55.00;100271.91;5091108;28;20035;-72
2022/08/15 08:32:39;;;;;;;6.93;4.45;;;;;;;23.46;54.95;100274.53;5085468;28;20020;-72
2022/08/15 08:35:07;;;;;;;6.88;4.55;;;;;;;23.46;55.31;100266.59;5090810;28;20024;-72
2022/08/15 08:37:51;;;;;;;6.03;4.13;;;;;;;23.48;54.88;100272.59;5086807;28;20027;-73
2022/08/15 08:43:21;;;;;;;7.05;4.35;;;;;;;23.51;55.65;100268.00;5082294;28;20035;-72
2022/08/15 08:46:02;;;;;;;8.75;4.60;;;;;;;23.50;54.49;100269.78;5084828;28;20066;-73
2022/08/15 08:48:46;;;;;;;13.55;4.68;;;;;;;23.49;55.16;100263.66;5083540;28;20028;-73
2022/08/15 08:51:38;;;;;;;6.13;4.05;;;;;;;23.49;54.71;100273.41;5087224;28;20365;-73
2022/08/15 08:54:26;;;;;;;6.43;4.00;;;;;;;23.48;54.51;100274.44;5086549;28;20032;-73
2022/08/15 08:56:54;;;;;;;5.20;3.90;;;;;;;23.43;54.77;100274.81;5087464;28;20077;-73
2022/08/15 08:59:25;;;;;;;7.15;4.90;;;;;;;23.41;54.95;100273.28;5085146;28;20027;-73
2022/08/15 09:02:00;;;;;;;8.88;4.53;;;;;;;23.37;54.84;100272.72;5087390;28;20037;-73
2022/08/15 09:04:37;;;;;;;7.00;4.00;;;;;;;23.34;54.62;100270.34;5088967;28;20027;-74
2022/08/15 09:07:05;;;;;;;6.50;3.95;;;;;;;23.33;54.73;100269.50;5082158;28;20428;-73
2022/08/15 09:09:34;;;;;;;8.13;4.30;;;;;;;23.32;54.88;100267.81;5085647;28;20476;-73
2022/08/15 09:14:51;;;;;;;10.85;4.18;;;;;;;23.31;54.95;100271.44;5084465;28;20055;-73
2022/08/15 09:17:19;;;;;;;7.40;3.83;;;;;;;23.31;55.21;100270.63;5086264;28;20395;-73
2022/08/15 09:20:07;;;;;;;7.47;4.20;;;;;;;23.28;54.81;100274.38;5087264;28;20028;-73
2022/08/15 09:22:32;;;;;;;7.00;4.15;;;;;;;23.24;56.28;100274.78;5088246;28;20047;-73
2022/08/15 09:24:58;;;;;;;6.80;4.18;;;;;;;23.22;55.74;100282.06;5086117;28;20047;-73
2022/08/15 09:27:32;;;;;;;5.85;4.45;;;;;;;23.18;56.28;100284.09;5083197;28;20061;-73
2022/08/15 09:30:06;;;;;;;7.07;4.32;;;;;;;23.15;56.34;100279.91;5083440;28;20491;-73
2022/08/15 09:32:47;;;;;;;7.40;4.40;;;;;;;23.14;56.63;100282.72;5087435;28;20125;-73
2022/08/15 09:35:25;;;;;;;;;;;;;;;23.20;55.90;100279.50;5080520;28;20020;-73
2022/08/15 09:38:23;;;;;;;5.82;4.22;;;;;;;23.19;56.94;100283.97;5086795;28;19939;-73
2022/08/15 09:41:33;;;;;;;6.60;4.10;;;;;;;23.22;57.09;100276.75;5080460;28;20463;-73
2022/08/15 09:44:20;;;;;;;7.93;4.32;;;;;;;23.27;57.48;100282.47;5084854;28;20066;-73
2022/08/15 09:47:08;;;;;;;6.85;4.30;;;;;;;23.32;57.93;100281.06;5079732;28;20024;-73
2022/08/15 09:49:48;;;;;;;7.43;4.53;;;;;;;23.39;57.41;100284.06;5084826;28;20029;-73
2022/08/15 09:52:44;;;;;;;9.43;4.57;;;;;;;23.45;56.90;100278.19;5079474;28;20486;-73
2022/08/15 09:55:19;;;;;;;12.52;4.57;;;;;;;23.49;56.94;100282.25;5081317;28;20036;-73
2022/08/15 09:57:49;;;;;;;8.10;4.57;;;;;;;23.55;56.42;100290.66;5083178;28;20038;-73
2022/08/15 10:00:17;;;;;;;9.63;5.20;;;;;;;23.57;56.85;100286.88;5079957;28;20047;-73
2022/08/15 10:02:52;;;;;;;9.27;5.05;;;;;;;23.63;56.51;100282.81;5081716;28;20030;-73
2022/08/15 10:05:25;;;;;;;9.13;4.97;;;;;;;23.72;56.39;100287.31;5079415;28;20101;-73
2022/08/15 10:07:59;;;;;;;9.43;5.00;;;;;;;23.85;56.46;100286.19;5084652;28;20102;-73
2022/08/15 10:10:46;;;;;;;8.30;4.72;;;;;;;23.97;55.81;100292.22;5083546;28;20020;-73
2022/08/15 10:13:34;;;;;;;12.40;4.95;;;;;;;24.00;55.27;100292.78;5080474;28;20039;-73
2022/08/15 10:15:59;;;;;;;7.32;4.57;;;;;;;24.04;55.92;100288.88;5072682;28;20467;-73
2022/08/15 10:18:26;;;;;;;8.05;4.78;;;;;;;24.11;55.40;100286.47;5079728;28;20027;-73
2022/08/15 10:21:16;;;;;;;7.53;5.15;;;;;;;24.16;55.41;100292.22;5082451;28;20027;-73
2022/08/15 10:23:45;;;;;;;7.93;4.50;;;;;;;24.12;55.74;100289.97;5079026;28;20043;-73
2022/08/15 10:26:30;;;;;;;7.75;4.75;;;;;;;24.09;55.10;100297.22;5081217;28;20028;-73
2022/08/15 10:29:04;;;;;;;12.07;5.00;;;;;;;24.04;55.00;100294.19;5077649;28;20032;-73
2022/08/15 10:31:40;;;;;;;10.32;4.93;;;;;;;24.00;55.17;100292.78;5076751;28;20038;-73
2022/08/15 10:34:17;;;;;;;9.07;4.50;;;;;;;23.96;55.34;100296.66;5073044;28;20453;-73
2022/08/15 10:37:04;;;;;;;5.68;4.72;;;;;;;23.97;55.44;100300.19;5082420;28;20016;-74
2022/08/15 10:39:30;;;;;;;6.85;4.45;;;;;;;23.96;55.77;100301.97;5079171;28;20028;-73
2022/08/15 10:42:20;;;;;;;7.05;4.20;;;;;;;23.98;55.70;100300.03;5077724;28;20031;-73
2022/08/15 10:45:13;;;;;;;9.70;4.57;;;;;;;24.01;55.53;100302.44;5081228;28;20036;-73
2022/08/15 10:47:47;;;;;;;7.70;4.90;;;;;;;24.01;55.64;100304.22;5080697;28;20055;-73
2022/08/15 10:50:32;;;;;;;7.65;4.70;;;;;;;23.98;55.58;100297.38;5075906;28;20021;-74
2022/08/15 10:53:07;;;;;;;6.13;4.68;;;;;;;23.94;55.73;100303.94;5080261;28;20098;-74
2022/08/15 10:55:39;;;;;;;6.65;4.43;;;;;;;23.85;55.93;100304.78;5080064;28;20032;-73
2022/08/15 10:58:09;;;;;;;6.53;4.63;;;;;;;23.76;56.60;100311.75;5086848;28;20051;-73
2022/08/15 11:01:20;;;;;;;6.63;4.60;;;;;;;23.72;56.00;100311.22;5083739;28;20020;-73
2022/08/15 11:04:08;;;;;;;6.28;4.68;;;;;;;23.65;56.45;100307.41;5081550;28;20020;-73
2022/08/15 11:06:48;;;;;;;6.93;4.38;;;;;;;23.60;56.68;100306.97;5082378;28;20039;-73
2022/08/15 11:09:18;;;;;;;10.00;4.50;;;;;;;23.58;57.61;100314.25;5079806;28;20146;-73
2022/08/15 11:11:54;;;;;;;7.20;4.65;;;;;;;23.57;56.89;100313.41;5081737;28;20641;-73
2022/08/15 11:14:39;;;;;;;7.65;4.15;;;;;;;23.59;56.74;100326.53;5078898;28;20036;-73
2022/08/15 11:17:12;;;;;;;5.60;4.35;;;;;;;23.60;57.96;100321.13;5081028;28;20059;-73
2022/08/15 11:19:43;;;;;;;7.97;4.85;;;;;;;23.62;56.74;100318.31;5083471;28;20549;-74
2022/08/15 11:22:19;;;;;;;9.32;4.50;;;;;;;23.65;57.11;100323.34;5085485;28;20028;-73
2022/08/15 11:24:55;;;;;;;8.82;4.45;;;;;;;23.67;56.88;100318.75;5086145;28;20089;-73
2022/08/15 11:27:24;;;;;;;6.38;4.32;;;;;;;23.71;57.12;100319.28;5082608;28;20020;-72
2022/08/15 11:29:52;;;;;;;7.45;4.90;;;;;;;23.74;57.04;100319.84;5082999;28;20117;-73
2022/08/15 11:32:26;;;;;;;6.00;4.28;;;;;;;23.82;56.67;100321.00;5080783;28;20028;-72
2022/08/15 11:34:51;;;;;;;7.70;4.63;;;;;;;23.85;56.80;100320.72;5079356;28;20101;-73
2022/08/15 11:37:21;;;;;;;8.18;4.00;;;;;;;23.88;56.38;100320.44;5097927;28;20024;-73
2022/08/15 11:40:25;;;;;;;7.60;3.97;;;;;;;23.96;56.40;100315.25;5084249;28;20082;-73
2022/08/15 11:42:52;;;;;;;7.57;5.40;;;;;;;24.03;56.00;100316.41;5080302;28;20272;-72
2022/08/15 11:45:24;;;;;;;6.10;4.32;;;;;;;24.08;55.48;100316.81;5079386;28;20035;-73
2022/08/15 11:47:53;;;;;;;6.00;4.10;;;;;;;24.15;55.69;100321.56;5092278;28;20024;-73
2022/08/15 11:50:33;;;;;;;8.70;4.43;;;;;;;24.24;55.04;100320.75;5075812;28;20139;-72
2022/08/15 11:53:01;;;;;;;41.83;6.17;;;;;;;24.30;55.52;100324.66;5078270;28;20572;-73
2022/08/15 11:55:41;;;;;;;9.77;4.68;;;;;;;24.37;54.94;100323.94;5081453;28;20300;-73
2022/08/15 11:58:12;;;;;;;7.65;4.55;;;;;;;24.46;55.41;100326.72;5081625;28;20439;-73
2022/08/15 12:00:37;;;;;;;;;;;;;;;24.58;54.61;100324.72;5083780;28;20074;-73
2022/08/15 12:03:32;;;;;;;7.03;4.30;;;;;;;24.63;54.28;100331.28;5085495;28;19920;-74
2022/08/15 12:06:19;;;;;;;6.20;4.40;;;;;;;24.75;54.83;100324.00;5080385;28;20297;-73